Pine Level, Alabama
Current Conditions -  °F | °C
As of 2:53 PM on Tuesday 27 Jan 2015 (Local Time) from KTOI Reporting Station
Clear Clear  
Wind Chill: 62°   Ceiling: Unl
Heat Index: 62°   Visibility: 10mi
Dew Point: 33°   Wind: 17mph
Humidity: 34%   Direction: 330°NNW
Pressure: 30"   Gusts: 23mph
Location:  32.07°N, 86.06°W
Report Text: KTOI 272053Z AUTO 33015G20KT 10SM CLR 17/01 A3000 RMK AO2 SLP158 T01670006 55003
Loading
Personal Weather Stations






























Interactive Weather Map New forecast layout! Learn more

10-Day Weather Forecast

Advertisements
Track Severe Weather on mobile